sensor_id;sensor_type;location;lat;lon;timestamp;P1;durP1;ratioP1;P2;durP2;ratioP2
7179;SDS011;3631;42.152;24.756;2023-08-30T00:02:03;18.42;;;14.35;;
7179;SDS011;3631;42.152;24.756;2023-08-30T00:05:15;19.83;;;14.23;;
7179;SDS011;3631;42.152;24.756;2023-08-30T00:08:03;16.60;;;14.75;;
7179;SDS011;3631;42.152;24.756;2023-08-30T00:11:05;20.35;;;15.20;;
7179;SDS011;3631;42.152;24.756;2023-08-30T00:14:23;19.73;;;14.48;;
7179;SDS011;3631;42.152;24.756;2023-08-30T00:17:03;23.40;;;15.75;;
7179;SDS011;3631;42.152;24.756;2023-08-30T00:19:43;24.33;;;16.30;;
7179;SDS011;3631;42.152;24.756;2023-08-30T00:26:14;21.85;;;18.17;;
7179;SDS011;3631;42.152;24.756;2023-08-30T00:29:16;22.90;;;17.77;;
7179;SDS011;3631;42.152;24.756;2023-08-30T00:32:09;19.27;;;16.63;;
7179;SDS011;3631;42.152;24.756;2023-08-30T00:35:17;17.80;;;15.38;;
7179;SDS011;3631;42.152;24.756;2023-08-30T00:38:37;17.80;;;14.73;;
7179;SDS011;3631;42.152;24.756;2023-08-30T00:44:52;16.83;;;13.55;;
7179;SDS011;3631;42.152;24.756;2023-08-30T00:47:55;16.63;;;13.07;;
7179;SDS011;3631;42.152;24.756;2023-08-30T00:51:06;14.73;;;12.98;;
7179;SDS011;3631;42.152;24.756;2023-08-30T00:54:09;17.92;;;12.50;;
7179;SDS011;3631;42.152;24.756;2023-08-30T00:57:17;14.43;;;12.38;;
7179;SDS011;3631;42.152;24.756;2023-08-30T01:03:03;17.10;;;12.52;;
7179;SDS011;3631;42.152;24.756;2023-08-30T01:06:14;16.55;;;13.23;;
7179;SDS011;3631;42.152;24.756;2023-08-30T01:09:32;13.30;;;12.07;;
7179;SDS011;3631;42.152;24.756;2023-08-30T01:12:53;13.93;;;12.63;;
7179;SDS011;3631;42.152;24.756;2023-08-30T01:16:07;13.82;;;12.45;;
7179;SDS011;3631;42.152;24.756;2023-08-30T01:19:15;14.80;;;12.82;;
7179;SDS011;3631;42.152;24.756;2023-08-30T01:22:34;14.10;;;12.70;;
7179;SDS011;3631;42.152;24.756;2023-08-30T01:25:53;18.45;;;12.85;;
7179;SDS011;3631;42.152;24.756;2023-08-30T01:29:12;14.30;;;12.90;;
7179;SDS011;3631;42.152;24.756;2023-08-30T01:32:00;14.10;;;12.77;;
7179;SDS011;3631;42.152;24.756;2023-08-30T01:35:07;13.88;;;12.23;;
7179;SDS011;3631;42.152;24.756;2023-08-30T01:38:10;16.17;;;11.98;;
7179;SDS011;3631;42.152;24.756;2023-08-30T01:41:05;12.88;;;11.65;;
7179;SDS011;3631;42.152;24.756;2023-08-30T01:44:04;13.63;;;11.98;;
7179;SDS011;3631;42.152;24.756;2023-08-30T01:47:14;17.38;;;12.43;;
7179;SDS011;3631;42.152;24.756;2023-08-30T01:50:19;14.43;;;11.82;;
7179;SDS011;3631;42.152;24.756;2023-08-30T01:53:31;13.23;;;11.93;;
7179;SDS011;3631;42.152;24.756;2023-08-30T01:56:28;12.52;;;11.43;;
7179;SDS011;3631;42.152;24.756;2023-08-30T02:09:54;15.13;;;12.20;;
7179;SDS011;3631;42.152;24.756;2023-08-30T02:13:06;13.35;;;12.05;;
7179;SDS011;3631;42.152;24.756;2023-08-30T02:16:04;14.95;;;12.50;;
7179;SDS011;3631;42.152;24.756;2023-08-30T02:19:02;14.10;;;12.80;;
7179;SDS011;3631;42.152;24.756;2023-08-30T02:25:11;13.15;;;11.75;;
7179;SDS011;3631;42.152;24.756;2023-08-30T02:28:06;16.15;;;12.43;;
7179;SDS011;3631;42.152;24.756;2023-08-30T02:31:05;13.93;;;12.40;;
7179;SDS011;3631;42.152;24.756;2023-08-30T02:34:07;16.30;;;13.23;;
7179;SDS011;3631;42.152;24.756;2023-08-30T02:37:06;14.50;;;13.05;;
7179;SDS011;3631;42.152;24.756;2023-08-30T02:43:31;13.60;;;12.27;;
7179;SDS011;3631;42.152;24.756;2023-08-30T02:46:38;13.82;;;11.73;;
7179;SDS011;3631;42.152;24.756;2023-08-30T02:49:36;15.90;;;12.25;;
7179;SDS011;3631;42.152;24.756;2023-08-30T02:52:39;13.20;;;11.88;;
7179;SDS011;3631;42.152;24.756;2023-08-30T02:55:51;16.60;;;11.93;;
7179;SDS011;3631;42.152;24.756;2023-08-30T03:01:58;15.07;;;11.77;;
7179;SDS011;3631;42.152;24.756;2023-08-30T03:04:52;15.15;;;12.23;;
7179;SDS011;3631;42.152;24.756;2023-08-30T03:08:09;13.60;;;11.82;;
7179;SDS011;3631;42.152;24.756;2023-08-30T03:11:16;16.23;;;12.00;;
7179;SDS011;3631;42.152;24.756;2023-08-30T03:14:39;20.92;;;12.30;;
7179;SDS011;3631;42.152;24.756;2023-08-30T03:17:45;14.13;;;12.02;;
7179;SDS011;3631;42.152;24.756;2023-08-30T03:20:39;16.23;;;12.70;;
7179;SDS011;3631;42.152;24.756;2023-08-30T03:23:16;22.15;;;12.77;;
7179;SDS011;3631;42.152;24.756;2023-08-30T03:25:51;15.98;;;12.18;;
7179;SDS011;3631;42.152;24.756;2023-08-30T03:28:21;17.63;;;12.05;;
7179;SDS011;3631;42.152;24.756;2023-08-30T03:31:01;17.92;;;12.73;;
7179;SDS011;3631;42.152;24.756;2023-08-30T03:33:45;18.38;;;12.48;;
7179;SDS011;3631;42.152;24.756;2023-08-30T03:36:21;17.52;;;12.15;;
7179;SDS011;3631;42.152;24.756;2023-08-30T03:38:59;14.93;;;12.38;;
7179;SDS011;3631;42.152;24.756;2023-08-30T03:44:32;22.58;;;17.80;;
7179;SDS011;3631;42.152;24.756;2023-08-30T03:47:18;20.25;;;14.43;;
7179;SDS011;3631;42.152;24.756;2023-08-30T03:50:07;25.05;;;15.88;;
7179;SDS011;3631;42.152;24.756;2023-08-30T03:53:00;16.45;;;12.90;;
7179;SDS011;3631;42.152;24.756;2023-08-30T03:55:51;12.63;;;11.52;;
7179;SDS011;3631;42.152;24.756;2023-08-30T04:01:37;14.48;;;11.63;;
7179;SDS011;3631;42.152;24.756;2023-08-30T04:04:28;19.33;;;12.65;;
7179;SDS011;3631;42.152;24.756;2023-08-30T04:07:13;23.92;;;14.60;;
7179;SDS011;3631;42.152;24.756;2023-08-30T04:10:04;20.95;;;15.35;;
7179;SDS011;3631;42.152;24.756;2023-08-30T04:12:48;22.15;;;12.55;;
7179;SDS011;3631;42.152;24.756;2023-08-30T04:15:32;27.73;;;19.70;;
7179;SDS011;3631;42.152;24.756;2023-08-30T04:18:20;25.48;;;19.20;;
7179;SDS011;3631;42.152;24.756;2023-08-30T04:21:15;20.40;;;18.02;;
7179;SDS011;3631;42.152;24.756;2023-08-30T04:24:01;26.08;;;16.83;;
7179;SDS011;3631;42.152;24.756;2023-08-30T04:26:54;23.70;;;20.10;;
7179;SDS011;3631;42.152;24.756;2023-08-30T04:30:03;16.02;;;11.32;;
7179;SDS011;3631;42.152;24.756;2023-08-30T04:33:05;11.55;;;10.35;;
7179;SDS011;3631;42.152;24.756;2023-08-30T04:35:54;26.27;;;18.50;;
7179;SDS011;3631;42.152;24.756;2023-08-30T04:38:40;16.83;;;13.05;;
7179;SDS011;3631;42.152;24.756;2023-08-30T04:41:29;15.32;;;12.55;;
7179;SDS011;3631;42.152;24.756;2023-08-30T04:44:26;16.20;;;11.52;;
7179;SDS011;3631;42.152;24.756;2023-08-30T04:47:27;15.25;;;12.50;;
7179;SDS011;3631;42.152;24.756;2023-08-30T04:50:23;14.93;;;11.50;;
7179;SDS011;3631;42.152;24.756;2023-08-30T04:53:11;18.73;;;15.10;;
7179;SDS011;3631;42.152;24.756;2023-08-30T05:02:40;16.55;;;12.40;;
7179;SDS011;3631;42.152;24.756;2023-08-30T05:05:14;13.32;;;11.68;;
7179;SDS011;3631;42.152;24.756;2023-08-30T05:08:05;14.55;;;12.93;;
7179;SDS011;3631;42.152;24.756;2023-08-30T05:10:54;42.38;;;28.55;;
7179;SDS011;3631;42.152;24.756;2023-08-30T05:13:38;17.42;;;11.68;;
7179;SDS011;3631;42.152;24.756;2023-08-30T05:19:52;16.90;;;12.40;;
7179;SDS011;3631;42.152;24.756;2023-08-30T05:22:36;13.68;;;12.18;;
7179;SDS011;3631;42.152;24.756;2023-08-30T05:25:35;16.52;;;11.27;;
7179;SDS011;3631;42.152;24.756;2023-08-30T05:28:45;15.88;;;12.18;;
7179;SDS011;3631;42.152;24.756;2023-08-30T05:31:19;15.13;;;13.57;;
7179;SDS011;3631;42.152;24.756;2023-08-30T05:33:49;23.50;;;13.75;;
7179;SDS011;3631;42.152;24.756;2023-08-30T05:36:19;16.08;;;14.27;;
7179;SDS011;3631;42.152;24.756;2023-08-30T05:38:47;10.73;;;9.70;;
7179;SDS011;3631;42.152;24.756;2023-08-30T05:41:16;11.45;;;10.25;;
7179;SDS011;3631;42.152;24.756;2023-08-30T05:43:45;15.65;;;14.07;;
7179;SDS011;3631;42.152;24.756;2023-08-30T05:46:17;18.45;;;10.25;;
7179;SDS011;3631;42.152;24.756;2023-08-30T05:48:51;14.45;;;10.75;;
7179;SDS011;3631;42.152;24.756;2023-08-30T05:51:23;14.93;;;9.90;;
7179;SDS011;3631;42.152;24.756;2023-08-30T05:53:56;13.77;;;10.13;;
7179;SDS011;3631;42.152;24.756;2023-08-30T05:56:31;16.27;;;9.63;;
7179;SDS011;3631;42.152;24.756;2023-08-30T05:59:02;22.17;;;9.68;;
7179;SDS011;3631;42.152;24.756;2023-08-30T06:01:31;12.88;;;11.57;;
7179;SDS011;3631;42.152;24.756;2023-08-30T06:04:04;11.07;;;10.05;;
7179;SDS011;3631;42.152;24.756;2023-08-30T06:06:37;12.45;;;11.25;;
7179;SDS011;3631;42.152;24.756;2023-08-30T06:09:10;13.15;;;9.90;;
7179;SDS011;3631;42.152;24.756;2023-08-30T06:11:44;16.95;;;11.68;;
7179;SDS011;3631;42.152;24.756;2023-08-30T06:14:15;16.70;;;10.85;;
7179;SDS011;3631;42.152;24.756;2023-08-30T06:16:45;12.77;;;11.45;;
7179;SDS011;3631;42.152;24.756;2023-08-30T06:19:18;13.60;;;10.93;;
7179;SDS011;3631;42.152;24.756;2023-08-30T06:21:48;17.15;;;11.50;;
7179;SDS011;3631;42.152;24.756;2023-08-30T06:24:18;13.95;;;12.48;;
7179;SDS011;3631;42.152;24.756;2023-08-30T06:26:49;14.80;;;11.57;;
7179;SDS011;3631;42.152;24.756;2023-08-30T06:29:19;14.25;;;12.18;;
7179;SDS011;3631;42.152;24.756;2023-08-30T06:31:50;13.52;;;12.13;;
7179;SDS011;3631;42.152;24.756;2023-08-30T06:34:26;13.98;;;10.57;;
7179;SDS011;3631;42.152;24.756;2023-08-30T06:36:57;11.65;;;10.60;;
7179;SDS011;3631;42.152;24.756;2023-08-30T06:39:33;17.02;;;11.32;;
7179;SDS011;3631;42.152;24.756;2023-08-30T06:42:06;15.73;;;11.50;;
7179;SDS011;3631;42.152;24.756;2023-08-30T06:44:36;13.43;;;10.50;;
7179;SDS011;3631;42.152;24.756;2023-08-30T06:47:11;11.50;;;10.30;;
7179;SDS011;3631;42.152;24.756;2023-08-30T06:49:44;16.75;;;10.45;;
7179;SDS011;3631;42.152;24.756;2023-08-30T06:52:14;12.32;;;9.60;;
7179;SDS011;3631;42.152;24.756;2023-08-30T06:54:45;10.70;;;9.55;;
7179;SDS011;3631;42.152;24.756;2023-08-30T06:57:14;16.65;;;9.73;;
7179;SDS011;3631;42.152;24.756;2023-08-30T06:59:44;10.80;;;9.90;;
7179;SDS011;3631;42.152;24.756;2023-08-30T07:02:13;13.27;;;9.07;;
7179;SDS011;3631;42.152;24.756;2023-08-30T07:04:43;14.10;;;10.00;;
7179;SDS011;3631;42.152;24.756;2023-08-30T07:07:14;13.45;;;9.88;;
7179;SDS011;3631;42.152;24.756;2023-08-30T07:09:46;10.40;;;9.25;;
7179;SDS011;3631;42.152;24.756;2023-08-30T07:12:14;12.68;;;10.20;;
7179;SDS011;3631;42.152;24.756;2023-08-30T07:14:42;10.65;;;9.63;;
7179;SDS011;3631;42.152;24.756;2023-08-30T07:17:11;14.48;;;10.05;;
7179;SDS011;3631;42.152;24.756;2023-08-30T07:19:39;10.52;;;9.50;;
7179;SDS011;3631;42.152;24.756;2023-08-30T07:22:14;22.23;;;11.70;;
7179;SDS011;3631;42.152;24.756;2023-08-30T07:24:44;15.60;;;10.80;;
7179;SDS011;3631;42.152;24.756;2023-08-30T07:27:15;12.15;;;10.50;;
7179;SDS011;3631;42.152;24.756;2023-08-30T07:29:47;14.55;;;11.13;;
7179;SDS011;3631;42.152;24.756;2023-08-30T07:32:18;13.57;;;10.60;;
7179;SDS011;3631;42.152;24.756;2023-08-30T07:34:49;13.07;;;9.50;;
7179;SDS011;3631;42.152;24.756;2023-08-30T07:37:21;11.85;;;9.75;;
7179;SDS011;3631;42.152;24.756;2023-08-30T07:39:51;11.57;;;10.43;;
7179;SDS011;3631;42.152;24.756;2023-08-30T07:42:22;11.88;;;10.73;;
7179;SDS011;3631;42.152;24.756;2023-08-30T07:44:51;15.80;;;9.50;;
7179;SDS011;3631;42.152;24.756;2023-08-30T07:47:20;12.48;;;9.25;;
7179;SDS011;3631;42.152;24.756;2023-08-30T07:49:52;9.88;;;8.93;;
7179;SDS011;3631;42.152;24.756;2023-08-30T07:52:26;14.27;;;8.85;;
7179;SDS011;3631;42.152;24.756;2023-08-30T07:54:54;15.13;;;9.77;;
7179;SDS011;3631;42.152;24.756;2023-08-30T07:57:28;15.30;;;10.00;;
7179;SDS011;3631;42.152;24.756;2023-08-30T07:59:59;12.70;;;11.02;;
7179;SDS011;3631;42.152;24.756;2023-08-30T08:02:31;11.52;;;10.35;;
7179;SDS011;3631;42.152;24.756;2023-08-30T08:05:00;12.00;;;10.65;;
7179;SDS011;3631;42.152;24.756;2023-08-30T08:07:32;14.38;;;11.75;;
7179;SDS011;3631;42.152;24.756;2023-08-30T08:10:01;11.55;;;9.43;;
7179;SDS011;3631;42.152;24.756;2023-08-30T08:12:33;10.38;;;9.32;;
7179;SDS011;3631;42.152;24.756;2023-08-30T08:15:04;10.20;;;9.20;;
7179;SDS011;3631;42.152;24.756;2023-08-30T08:17:37;10.88;;;9.25;;
7179;SDS011;3631;42.152;24.756;2023-08-30T08:20:09;12.35;;;9.75;;
7179;SDS011;3631;42.152;24.756;2023-08-30T08:22:42;14.00;;;9.50;;
7179;SDS011;3631;42.152;24.756;2023-08-30T08:25:10;10.15;;;9.25;;
7179;SDS011;3631;42.152;24.756;2023-08-30T08:27:42;11.82;;;10.43;;
7179;SDS011;3631;42.152;24.756;2023-08-30T08:30:12;12.95;;;10.07;;
7179;SDS011;3631;42.152;24.756;2023-08-30T08:32:45;13.20;;;10.45;;
7179;SDS011;3631;42.152;24.756;2023-08-30T08:35:16;13.60;;;9.43;;
7179;SDS011;3631;42.152;24.756;2023-08-30T08:37:48;11.07;;;9.90;;
7179;SDS011;3631;42.152;24.756;2023-08-30T08:40:34;9.85;;;9.10;;
7179;SDS011;3631;42.152;24.756;2023-08-30T08:43:57;15.05;;;9.07;;
7179;SDS011;3631;42.152;24.756;2023-08-30T08:47:05;11.40;;;9.43;;
7179;SDS011;3631;42.152;24.756;2023-08-30T08:50:11;11.00;;;9.43;;
7179;SDS011;3631;42.152;24.756;2023-08-30T08:53:12;10.30;;;8.90;;
7179;SDS011;3631;42.152;24.756;2023-08-30T08:56:24;11.23;;;9.52;;
7179;SDS011;3631;42.152;24.756;2023-08-30T08:59:24;9.93;;;8.95;;
7179;SDS011;3631;42.152;24.756;2023-08-30T09:05:27;12.73;;;9.82;;
7179;SDS011;3631;42.152;24.756;2023-08-30T09:08:40;11.95;;;9.65;;
7179;SDS011;3631;42.152;24.756;2023-08-30T09:11:37;13.18;;;9.60;;
7179;SDS011;3631;42.152;24.756;2023-08-30T09:14:36;12.93;;;8.77;;
7179;SDS011;3631;42.152;24.756;2023-08-30T09:17:19;10.15;;;9.15;;
7179;SDS011;3631;42.152;24.756;2023-08-30T09:20:35;11.25;;;10.18;;
7179;SDS011;3631;42.152;24.756;2023-08-30T09:23:19;9.88;;;8.98;;
7179;SDS011;3631;42.152;24.756;2023-08-30T09:28:45;10.82;;;9.27;;
7179;SDS011;3631;42.152;24.756;2023-08-30T09:32:11;14.73;;;11.07;;
7179;SDS011;3631;42.152;24.756;2023-08-30T09:35:11;10.88;;;9.85;;
7179;SDS011;3631;42.152;24.756;2023-08-30T09:38:00;11.82;;;10.23;;
7179;SDS011;3631;42.152;24.756;2023-08-30T09:41:05;14.68;;;9.95;;
7179;SDS011;3631;42.152;24.756;2023-08-30T09:50:54;11.18;;;9.65;;
7179;SDS011;3631;42.152;24.756;2023-08-30T09:54:02;15.65;;;10.40;;
7179;SDS011;3631;42.152;24.756;2023-08-30T09:56:33;10.82;;;9.77;;
7179;SDS011;3631;42.152;24.756;2023-08-30T09:59:04;10.48;;;9.52;;
7179;SDS011;3631;42.152;24.756;2023-08-30T10:01:33;10.65;;;9.10;;
7179;SDS011;3631;42.152;24.756;2023-08-30T10:04:05;9.05;;;8.32;;
7179;SDS011;3631;42.152;24.756;2023-08-30T10:06:41;22.70;;;15.57;;
7179;SDS011;3631;42.152;24.756;2023-08-30T10:09:12;14.07;;;10.23;;
7179;SDS011;3631;42.152;24.756;2023-08-30T10:11:57;10.40;;;9.50;;
7179;SDS011;3631;42.152;24.756;2023-08-30T10:14:51;16.15;;;9.88;;
7179;SDS011;3631;42.152;24.756;2023-08-30T10:17:27;10.10;;;9.32;;
7179;SDS011;3631;42.152;24.756;2023-08-30T10:20:33;12.13;;;11.02;;
7179;SDS011;3631;42.152;24.756;2023-08-30T10:23:20;14.13;;;10.98;;
7179;SDS011;3631;42.152;24.756;2023-08-30T10:25:53;14.60;;;11.68;;
7179;SDS011;3631;42.152;24.756;2023-08-30T10:28:28;13.32;;;11.38;;
7179;SDS011;3631;42.152;24.756;2023-08-30T10:31:03;13.77;;;10.60;;
7179;SDS011;3631;42.152;24.756;2023-08-30T10:33:43;13.70;;;11.60;;
7179;SDS011;3631;42.152;24.756;2023-08-30T10:36:21;12.25;;;11.13;;
7179;SDS011;3631;42.152;24.756;2023-08-30T10:38:54;13.95;;;11.35;;
7179;SDS011;3631;42.152;24.756;2023-08-30T10:41:26;14.07;;;12.13;;
7179;SDS011;3631;42.152;24.756;2023-08-30T10:43:59;14.43;;;12.18;;
7179;SDS011;3631;42.152;24.756;2023-08-30T10:46:32;12.52;;;11.30;;
7179;SDS011;3631;42.152;24.756;2023-08-30T10:49:11;13.23;;;11.73;;
7179;SDS011;3631;42.152;24.756;2023-08-30T10:51:43;14.00;;;12.38;;
7179;SDS011;3631;42.152;24.756;2023-08-30T10:54:16;13.93;;;12.63;;
7179;SDS011;3631;42.152;24.756;2023-08-30T10:56:54;13.40;;;12.05;;
7179;SDS011;3631;42.152;24.756;2023-08-30T10:59:30;14.25;;;12.82;;
7179;SDS011;3631;42.152;24.756;2023-08-30T11:02:01;14.38;;;12.32;;
7179;SDS011;3631;42.152;24.756;2023-08-30T11:04:40;14.13;;;12.77;;
7179;SDS011;3631;42.152;24.756;2023-08-30T11:07:09;19.58;;;13.57;;
7179;SDS011;3631;42.152;24.756;2023-08-30T11:09:46;18.00;;;14.65;;
7179;SDS011;3631;42.152;24.756;2023-08-30T11:12:18;14.95;;;13.45;;
7179;SDS011;3631;42.152;24.756;2023-08-30T11:14:55;17.70;;;13.80;;
7179;SDS011;3631;42.152;24.756;2023-08-30T11:17:28;14.90;;;13.43;;
7179;SDS011;3631;42.152;24.756;2023-08-30T11:20:05;15.18;;;13.70;;
7179;SDS011;3631;42.152;24.756;2023-08-30T11:22:41;15.15;;;13.50;;
7179;SDS011;3631;42.152;24.756;2023-08-30T11:25:19;25.27;;;14.80;;
7179;SDS011;3631;42.152;24.756;2023-08-30T11:27:51;18.85;;;13.68;;
7179;SDS011;3631;42.152;24.756;2023-08-30T11:30:40;16.23;;;13.25;;
7179;SDS011;3631;42.152;24.756;2023-08-30T11:33:10;14.20;;;12.75;;
7179;SDS011;3631;42.152;24.756;2023-08-30T11:35:40;20.05;;;13.90;;
7179;SDS011;3631;42.152;24.756;2023-08-30T11:38:11;23.23;;;14.95;;
7179;SDS011;3631;42.152;24.756;2023-08-30T11:40:45;14.75;;;13.32;;
7179;SDS011;3631;42.152;24.756;2023-08-30T11:43:19;15.63;;;14.07;;
7179;SDS011;3631;42.152;24.756;2023-08-30T11:45:56;14.50;;;13.07;;
7179;SDS011;3631;42.152;24.756;2023-08-30T11:48:27;16.50;;;12.90;;
7179;SDS011;3631;42.152;24.756;2023-08-30T11:50:59;17.70;;;13.55;;
7179;SDS011;3631;42.152;24.756;2023-08-30T11:53:32;16.38;;;14.68;;
7179;SDS011;3631;42.152;24.756;2023-08-30T11:56:05;18.13;;;14.00;;
7179;SDS011;3631;42.152;24.756;2023-08-30T11:58:35;15.80;;;14.20;;
7179;SDS011;3631;42.152;24.756;2023-08-30T12:01:07;15.38;;;13.80;;
7179;SDS011;3631;42.152;24.756;2023-08-30T12:03:35;21.38;;;14.57;;
7179;SDS011;3631;42.152;24.756;2023-08-30T12:06:09;15.50;;;14.02;;
7179;SDS011;3631;42.152;24.756;2023-08-30T12:08:39;15.02;;;13.63;;
7179;SDS011;3631;42.152;24.756;2023-08-30T12:11:19;15.90;;;14.45;;
7179;SDS011;3631;42.152;24.756;2023-08-30T12:14:02;22.33;;;14.93;;
7179;SDS011;3631;42.152;24.756;2023-08-30T12:16:32;17.27;;;13.77;;
7179;SDS011;3631;42.152;24.756;2023-08-30T12:19:08;16.23;;;14.52;;
7179;SDS011;3631;42.152;24.756;2023-08-30T12:21:40;16.50;;;14.27;;
7179;SDS011;3631;42.152;24.756;2023-08-30T12:24:09;18.95;;;14.90;;
7179;SDS011;3631;42.152;24.756;2023-08-30T12:26:44;15.90;;;14.43;;
7179;SDS011;3631;42.152;24.756;2023-08-30T12:29:15;16.67;;;15.07;;
7179;SDS011;3631;42.152;24.756;2023-08-30T12:31:44;18.42;;;14.32;;
7179;SDS011;3631;42.152;24.756;2023-08-30T12:34:14;16.60;;;15.05;;
7179;SDS011;3631;42.152;24.756;2023-08-30T12:36:46;21.27;;;15.43;;
7179;SDS011;3631;42.152;24.756;2023-08-30T12:39:15;17.95;;;15.57;;
7179;SDS011;3631;42.152;24.756;2023-08-30T12:41:45;16.77;;;15.18;;
7179;SDS011;3631;42.152;24.756;2023-08-30T12:44:16;22.77;;;15.00;;
7179;SDS011;3631;42.152;24.756;2023-08-30T12:46:45;17.08;;;14.43;;
7179;SDS011;3631;42.152;24.756;2023-08-30T12:49:14;16.30;;;14.75;;
7179;SDS011;3631;42.152;24.756;2023-08-30T12:51:44;18.02;;;15.98;;
7179;SDS011;3631;42.152;24.756;2023-08-30T12:54:15;18.27;;;16.35;;
7179;SDS011;3631;42.152;24.756;2023-08-30T12:56:49;33.10;;;21.92;;
7179;SDS011;3631;42.152;24.756;2023-08-30T12:59:20;32.65;;;22.42;;
7179;SDS011;3631;42.152;24.756;2023-08-30T13:01:55;17.10;;;15.43;;
7179;SDS011;3631;42.152;24.756;2023-08-30T13:04:30;21.77;;;14.50;;
7179;SDS011;3631;42.152;24.756;2023-08-30T13:07:00;18.95;;;14.50;;
7179;SDS011;3631;42.152;24.756;2023-08-30T13:09:30;15.25;;;13.75;;
7179;SDS011;3631;42.152;24.756;2023-08-30T13:12:01;19.20;;;15.18;;
7179;SDS011;3631;42.152;24.756;2023-08-30T13:14:32;15.30;;;13.77;;
7179;SDS011;3631;42.152;24.756;2023-08-30T13:17:02;16.45;;;14.77;;
7179;SDS011;3631;42.152;24.756;2023-08-30T13:19:31;15.82;;;13.68;;
7179;SDS011;3631;42.152;24.756;2023-08-30T13:22:03;14.38;;;12.98;;
7179;SDS011;3631;42.152;24.756;2023-08-30T13:24:32;14.88;;;13.43;;
7179;SDS011;3631;42.152;24.756;2023-08-30T13:27:03;13.82;;;12.52;;
7179;SDS011;3631;42.152;24.756;2023-08-30T13:29:36;15.43;;;13.32;;
7179;SDS011;3631;42.152;24.756;2023-08-30T13:32:06;15.48;;;13.98;;
7179;SDS011;3631;42.152;24.756;2023-08-30T13:34:40;17.33;;;12.98;;
7179;SDS011;3631;42.152;24.756;2023-08-30T13:37:13;14.93;;;12.38;;
7179;SDS011;3631;42.152;24.756;2023-08-30T13:39:48;15.15;;;13.63;;
7179;SDS011;3631;42.152;24.756;2023-08-30T13:42:33;20.95;;;14.05;;
7179;SDS011;3631;42.152;24.756;2023-08-30T13:45:09;14.25;;;12.82;;
7179;SDS011;3631;42.152;24.756;2023-08-30T13:48:00;17.15;;;12.50;;
7179;SDS011;3631;42.152;24.756;2023-08-30T13:50:30;14.65;;;13.25;;
7179;SDS011;3631;42.152;24.756;2023-08-30T13:53:03;16.63;;;13.20;;
7179;SDS011;3631;42.152;24.756;2023-08-30T13:55:33;16.05;;;14.40;;
7179;SDS011;3631;42.152;24.756;2023-08-30T13:58:04;14.07;;;12.45;;
7179;SDS011;3631;42.152;24.756;2023-08-30T14:00:37;13.40;;;12.23;;
7179;SDS011;3631;42.152;24.756;2023-08-30T14:03:09;15.77;;;12.50;;
7179;SDS011;3631;42.152;24.756;2023-08-30T14:05:42;17.35;;;13.32;;
7179;SDS011;3631;42.152;24.756;2023-08-30T14:08:12;16.42;;;13.05;;
7179;SDS011;3631;42.152;24.756;2023-08-30T14:10:45;22.60;;;19.10;;
7179;SDS011;3631;42.152;24.756;2023-08-30T14:13:18;19.95;;;15.85;;
7179;SDS011;3631;42.152;24.756;2023-08-30T14:15:50;22.77;;;14.70;;
7179;SDS011;3631;42.152;24.756;2023-08-30T14:18:20;16.38;;;14.82;;
7179;SDS011;3631;42.152;24.756;2023-08-30T14:20:54;20.95;;;16.13;;
7179;SDS011;3631;42.152;24.756;2023-08-30T14:23:33;17.10;;;14.73;;
7179;SDS011;3631;42.152;24.756;2023-08-30T14:26:20;20.08;;;14.82;;
7179;SDS011;3631;42.152;24.756;2023-08-30T14:28:54;21.63;;;15.93;;
7179;SDS011;3631;42.152;24.756;2023-08-30T14:31:25;15.85;;;13.85;;
7179;SDS011;3631;42.152;24.756;2023-08-30T14:33:55;15.38;;;13.90;;
7179;SDS011;3631;42.152;24.756;2023-08-30T14:36:29;20.30;;;14.65;;
7179;SDS011;3631;42.152;24.756;2023-08-30T14:38:58;15.77;;;14.05;;
7179;SDS011;3631;42.152;24.756;2023-08-30T14:41:28;20.73;;;16.63;;
7179;SDS011;3631;42.152;24.756;2023-08-30T14:44:06;19.50;;;15.55;;
7179;SDS011;3631;42.152;24.756;2023-08-30T14:46:54;31.20;;;15.20;;
7179;SDS011;3631;42.152;24.756;2023-08-30T14:49:49;25.17;;;17.55;;
7179;SDS011;3631;42.152;24.756;2023-08-30T14:52:19;19.25;;;15.68;;
7179;SDS011;3631;42.152;24.756;2023-08-30T14:54:53;20.55;;;16.42;;
7179;SDS011;3631;42.152;24.756;2023-08-30T14:57:25;20.80;;;17.05;;
7179;SDS011;3631;42.152;24.756;2023-08-30T14:59:56;19.50;;;16.02;;
7179;SDS011;3631;42.152;24.756;2023-08-30T15:02:27;20.33;;;17.75;;
7179;SDS011;3631;42.152;24.756;2023-08-30T15:05:02;17.40;;;14.82;;
7179;SDS011;3631;42.152;24.756;2023-08-30T15:07:58;20.30;;;13.85;;
7179;SDS011;3631;42.152;24.756;2023-08-30T15:10:26;18.58;;;15.82;;
7179;SDS011;3631;42.152;24.756;2023-08-30T15:12:57;19.17;;;17.23;;
7179;SDS011;3631;42.152;24.756;2023-08-30T15:15:30;22.48;;;18.55;;
7179;SDS011;3631;42.152;24.756;2023-08-30T15:18:01;22.40;;;16.88;;
7179;SDS011;3631;42.152;24.756;2023-08-30T15:20:29;23.35;;;17.90;;
7179;SDS011;3631;42.152;24.756;2023-08-30T15:23:07;19.13;;;15.27;;
7179;SDS011;3631;42.152;24.756;2023-08-30T15:26:25;18.10;;;16.23;;
7179;SDS011;3631;42.152;24.756;2023-08-30T15:29:06;17.10;;;15.40;;
7179;SDS011;3631;42.152;24.756;2023-08-30T15:31:46;23.55;;;20.42;;
7179;SDS011;3631;42.152;24.756;2023-08-30T15:34:28;16.52;;;14.93;;
7179;SDS011;3631;42.152;24.756;2023-08-30T15:37:29;16.20;;;12.75;;
7179;SDS011;3631;42.152;24.756;2023-08-30T15:40:27;16.17;;;14.50;;
7179;SDS011;3631;42.152;24.756;2023-08-30T15:43:05;17.15;;;15.38;;
7179;SDS011;3631;42.152;24.756;2023-08-30T15:52:27;15.25;;;13.75;;
7179;SDS011;3631;42.152;24.756;2023-08-30T15:55:02;17.00;;;13.70;;
7179;SDS011;3631;42.152;24.756;2023-08-30T15:57:45;19.08;;;15.15;;
7179;SDS011;3631;42.152;24.756;2023-08-30T16:00:23;16.73;;;15.00;;
7179;SDS011;3631;42.152;24.756;2023-08-30T16:02:59;16.30;;;14.57;;
7179;SDS011;3631;42.152;24.756;2023-08-30T16:05:45;20.83;;;18.75;;
7179;SDS011;3631;42.152;24.756;2023-08-30T16:08:27;19.95;;;15.05;;
7179;SDS011;3631;42.152;24.756;2023-08-30T16:10:56;23.05;;;15.23;;
7179;SDS011;3631;42.152;24.756;2023-08-30T16:13:34;25.23;;;19.92;;
7179;SDS011;3631;42.152;24.756;2023-08-30T16:16:20;19.60;;;15.77;;
7179;SDS011;3631;42.152;24.756;2023-08-30T16:18:49;22.48;;;15.00;;
7179;SDS011;3631;42.152;24.756;2023-08-30T16:21:24;22.33;;;14.95;;
7179;SDS011;3631;42.152;24.756;2023-08-30T16:24:01;16.15;;;13.55;;
7179;SDS011;3631;42.152;24.756;2023-08-30T16:26:31;15.40;;;14.02;;
7179;SDS011;3631;42.152;24.756;2023-08-30T16:29:00;20.80;;;16.63;;
7179;SDS011;3631;42.152;24.756;2023-08-30T16:31:36;19.85;;;17.58;;
7179;SDS011;3631;42.152;24.756;2023-08-30T16:34:10;19.50;;;13.65;;
7179;SDS011;3631;42.152;24.756;2023-08-30T16:36:45;18.20;;;13.85;;
7179;SDS011;3631;42.152;24.756;2023-08-30T16:39:24;15.68;;;14.15;;
7179;SDS011;3631;42.152;24.756;2023-08-30T16:41:58;18.15;;;14.07;;
7179;SDS011;3631;42.152;24.756;2023-08-30T16:44:32;16.75;;;14.57;;
7179;SDS011;3631;42.152;24.756;2023-08-30T16:47:17;29.13;;;18.50;;
7179;SDS011;3631;42.152;24.756;2023-08-30T16:49:55;16.77;;;13.93;;
7179;SDS011;3631;42.152;24.756;2023-08-30T16:52:26;17.10;;;15.30;;
7179;SDS011;3631;42.152;24.756;2023-08-30T16:55:18;16.67;;;13.98;;
7179;SDS011;3631;42.152;24.756;2023-08-30T16:58:07;23.10;;;15.82;;
7179;SDS011;3631;42.152;24.756;2023-08-30T17:01:08;23.73;;;15.70;;
7179;SDS011;3631;42.152;24.756;2023-08-30T17:03:52;21.67;;;15.98;;
7179;SDS011;3631;42.152;24.756;2023-08-30T17:06:25;22.45;;;13.38;;
7179;SDS011;3631;42.152;24.756;2023-08-30T17:09:02;19.90;;;15.52;;